Time;durP1;ratioP1;P1;durP2;ratioP2;P2;SDS_P1;SDS_P2;PMS_P1;PMS_P2;Temp;Humidity;BMP_temperature;BMP_pressure;BME280_temperature;BME280_humidity;BME280_pressure;Samples;Min_cycle;Max_cycle;Signal;HPM_P1;HPM_P2
2021/12/15 00:00:21;;;;;;;44.07;20.43;;;9.00;98.30;;;;;;5099057;23;20752;-85
2021/12/15 00:02:26;;;;;;;50.70;22.63;;;9.00;98.30;;;;;;5099393;23;20439;-85
2021/12/15 00:04:29;;;;;;;42.20;22.13;;;9.00;98.30;;;;;;5098699;23;20512;-85
2021/12/15 00:06:35;;;;;;;44.57;21.53;;;9.00;98.30;;;;;;5099001;23;20514;-84
2021/12/15 00:08:38;;;;;;;44.27;21.73;;;9.10;98.30;;;;;;5098525;23;20518;-84
2021/12/15 00:10:43;;;;;;;50.63;23.60;;;9.10;98.30;;;;;;5098675;23;20536;-84
2021/12/15 00:12:47;;;;;;;55.40;23.37;;;9.10;98.30;;;;;;5098749;23;20454;-85
2021/12/15 00:14:50;;;;;;;45.37;24.27;;;9.10;98.30;;;;;;5098478;23;20466;-85
2021/12/15 00:16:53;;;;;;;48.97;21.57;;;9.10;98.30;;;;;;5098804;23;20442;-84
2021/12/15 00:18:57;;;;;;;43.00;19.33;;;9.10;98.30;;;;;;5098588;23;20534;-84
2021/12/15 00:21:00;;;;;;;43.40;20.40;;;9.10;98.30;;;;;;5098981;23;20419;-85
2021/12/15 00:23:05;;;;;;;46.00;21.57;;;9.10;98.30;;;;;;5098813;23;21200;-84
2021/12/15 00:25:11;;;;;;;41.20;19.70;;;9.10;98.30;;;;;;5098533;23;20445;-85
2021/12/15 00:27:14;;;;;;;39.47;19.23;;;9.10;98.30;;;;;;5099143;23;20423;-85
2021/12/15 00:29:17;;;;;;;46.33;20.73;;;9.10;98.30;;;;;;5098506;23;20433;-84
2021/12/15 00:31:21;;;;;;;51.27;22.33;;;9.10;98.30;;;;;;5098636;23;20447;-85
2021/12/15 00:33:24;;;;;;;45.57;22.50;;;9.10;98.30;;;;;;5099039;23;20438;-85
2021/12/15 00:35:30;;;;;;;52.07;22.93;;;9.10;98.30;;;;;;5098966;23;20470;-85
2021/12/15 00:37:34;;;;;;;45.13;21.00;;;9.10;98.30;;;;;;5098520;23;20513;-84
2021/12/15 00:39:38;;;;;;;46.20;22.67;;;9.10;98.30;;;;;;5098474;23;20426;-84
2021/12/15 00:41:42;;;;;;;46.30;20.87;;;9.10;98.30;;;;;;5090558;23;20814;-85
2021/12/15 00:43:46;;;;;;;51.57;21.87;;;9.20;98.30;;;;;;5098969;23;20526;-85
2021/12/15 00:45:49;;;;;;;50.53;23.20;;;9.20;98.30;;;;;;5098755;23;20454;-85
2021/12/15 00:47:53;;;;;;;42.03;20.17;;;9.20;98.30;;;;;;5099743;23;20718;-84
2021/12/15 00:49:56;;;;;;;45.80;21.77;;;9.20;98.30;;;;;;5100292;23;21065;-84
2021/12/15 00:51:59;;;;;;;49.60;21.80;;;9.10;98.30;;;;;;5092791;23;20486;-84
2021/12/15 00:54:02;;;;;;;46.03;20.97;;;9.10;98.30;;;;;;5101927;23;20430;-84
2021/12/15 00:56:07;;;;;;;41.40;18.43;;;9.20;98.30;;;;;;5102332;23;20481;-84
2021/12/15 00:58:12;;;;;;;45.37;22.30;;;9.20;98.30;;;;;;5103175;23;20917;-84
2021/12/15 01:00:18;;;;;;;50.17;20.17;;;9.20;98.30;;;;;;5103979;23;20552;-82
2021/12/15 01:02:22;;;;;;;46.40;21.20;;;9.20;98.30;;;;;;5103783;23;20873;-83
2021/12/15 01:04:26;;;;;;;41.03;18.60;;;9.20;98.30;;;;;;5103355;23;20754;-84
2021/12/15 01:06:29;;;;;;;53.60;23.07;;;9.20;98.30;;;;;;5095144;23;20538;-84
2021/12/15 01:08:35;;;;;;;46.67;20.17;;;9.20;98.30;;;;;;5103443;23;20958;-83
2021/12/15 01:10:55;;;;;;;40.87;20.57;;;9.20;98.30;;;;;;5103507;23;20761;-83
2021/12/15 01:20:18;;;;;;;45.50;23.50;;;9.20;98.30;;;;;;5101771;23;20506;-85
2021/12/15 01:22:29;;;;;;;43.70;20.97;;;9.20;98.30;;;;;;5100073;23;20420;-85
2021/12/15 01:24:33;;;;;;;47.63;22.60;;;9.20;98.30;;;;;;5100061;23;20419;-84
2021/12/15 01:26:36;;;;;;;48.80;21.57;;;9.20;98.30;;;;;;5100034;23;20449;-84
2021/12/15 01:28:41;;;;;;;44.53;23.20;;;9.20;98.30;;;;;;5100351;23;20415;-84
2021/12/15 01:30:47;;;;;;;44.43;21.93;;;9.20;98.30;;;;;;5100145;23;20427;-84
2021/12/15 01:32:50;;;;;;;46.47;21.43;;;9.20;98.30;;;;;;5100882;23;20430;-84
2021/12/15 01:34:54;;;;;;;41.33;21.30;;;9.20;98.30;;;;;;5099479;23;20458;-84
2021/12/15 01:36:57;;;;;;;54.87;23.67;;;9.20;98.30;;;;;;5100082;23;20749;-85
2021/12/15 01:39:00;;;;;;;43.30;19.83;;;9.20;98.30;;;;;;5100099;23;20434;-85
2021/12/15 01:41:07;;;;;;;45.10;22.00;;;9.20;98.30;;;;;;5100587;23;20431;-85
2021/12/15 01:43:23;;;;;;;43.90;21.80;;;9.20;98.30;;;;;;5100273;23;20539;-84
2021/12/15 01:47:58;;;;;;;48.17;22.43;;;9.20;98.30;;;;;;5098744;23;20491;-84
2021/12/15 01:50:01;;;;;;;46.30;22.00;;;9.20;98.30;;;;;;5101253;23;20982;-84
2021/12/15 01:52:07;;;;;;;49.87;21.77;;;9.20;98.30;;;;;;5101878;23;20533;-83
2021/12/15 01:54:11;;;;;;;44.10;20.00;;;9.20;98.30;;;;;;5093093;23;20429;-83
2021/12/15 01:56:14;;;;;;;42.50;21.43;;;9.20;98.30;;;;;;5101868;23;20444;-84
2021/12/15 01:58:17;;;;;;;43.40;20.70;;;9.20;98.30;;;;;;5092753;23;20442;-84
2021/12/15 02:00:24;;;;;;;42.23;20.73;;;9.20;98.30;;;;;;5101505;23;20441;-84
2021/12/15 02:02:28;;;;;;;40.63;19.90;;;9.20;98.30;;;;;;5101099;23;20426;-85
2021/12/15 02:04:32;;;;;;;47.23;21.07;;;9.20;98.30;;;;;;5101013;23;20427;-84
2021/12/15 02:06:38;;;;;;;44.60;23.33;;;9.20;98.30;;;;;;5101191;23;21234;-84
2021/12/15 02:08:44;;;;;;;50.47;21.43;;;9.20;98.30;;;;;;5101897;23;20765;-84
2021/12/15 02:10:49;;;;;;;46.60;22.33;;;9.20;98.30;;;;;;5104327;23;20777;-83
2021/12/15 02:12:52;;;;;;;45.80;20.87;;;9.20;98.30;;;;;;5105214;23;20485;-84
2021/12/15 02:14:55;;;;;;;42.90;21.10;;;9.20;98.30;;;;;;5104848;23;20457;-85
2021/12/15 02:16:58;;;;;;;47.00;22.60;;;9.20;98.30;;;;;;5103543;23;20512;-84
2021/12/15 02:19:03;;;;;;;43.00;21.27;;;9.20;98.30;;;;;;5100999;23;20434;-83
2021/12/15 02:21:10;;;;;;;42.13;19.37;;;9.20;98.30;;;;;;5101776;23;20433;-85
2021/12/15 02:23:16;;;;;;;36.80;19.20;;;9.20;98.30;;;;;;5105363;23;20511;-85
2021/12/15 02:25:19;;;;;;;42.50;21.90;;;9.30;98.30;;;;;;5107543;23;20460;-84
2021/12/15 02:27:31;;;;;;;42.37;20.83;;;9.30;98.30;;;;;;5109404;23;20440;-84
2021/12/15 02:29:40;;;;;;;43.43;23.13;;;9.30;98.30;;;;;;5105353;23;20493;-84
2021/12/15 02:31:55;;;;;;;47.87;22.17;;;9.30;98.30;;;;;;5100340;23;20446;-84
2021/12/15 02:34:08;;;;;;;45.00;20.50;;;9.30;98.30;;;;;;5099119;23;20455;-84
2021/12/15 02:38:40;;;;;;;47.93;22.20;;;9.30;98.30;;;;;;5099637;23;20494;-84
2021/12/15 02:40:43;;;;;;;50.73;21.17;;;9.30;98.30;;;;;;5100094;23;20737;-84
2021/12/15 02:42:48;;;;;;;49.37;21.73;;;9.30;98.30;;;;;;5099567;23;20507;-84
2021/12/15 02:44:51;;;;;;;48.17;23.00;;;9.30;98.30;;;;;;5099663;23;20560;-84
2021/12/15 02:46:56;;;;;;;45.00;22.50;;;9.30;98.30;;;;;;5099402;23;20427;-85
2021/12/15 02:48:59;;;;;;;48.57;21.97;;;9.30;98.30;;;;;;5098967;23;21011;-84
2021/12/15 02:51:03;;;;;;;51.57;24.80;;;9.30;98.30;;;;;;5103146;23;20430;-84
2021/12/15 02:53:08;;;;;;;43.87;21.80;;;9.30;98.30;;;;;;5103019;23;20529;-84
2021/12/15 02:55:15;;;;;;;43.17;23.00;;;9.30;98.30;;;;;;5099149;23;21313;-83
2021/12/15 02:57:18;;;;;;;46.17;23.67;;;9.30;98.30;;;;;;5099080;23;20423;-84
2021/12/15 02:59:25;;;;;;;48.40;21.07;;;9.40;98.30;;;;;;5099504;23;20464;-84
2021/12/15 03:01:37;;;;;;;43.30;20.20;;;9.40;98.30;;;;;;5099091;23;20433;-83
2021/12/15 03:06:12;;;;;;;50.27;22.63;;;9.30;98.30;;;;;;5086573;23;20458;-83
2021/12/15 03:08:20;;;;;;;48.47;22.33;;;9.40;98.30;;;;;;5099191;23;20999;-84
2021/12/15 03:17:11;;;;;;;44.93;20.50;;;9.40;98.30;;;;;;5109314;23;20454;-80
2021/12/15 03:19:15;;;;;;;43.90;20.10;;;9.40;98.30;;;;;;5120168;23;20501;-79
2021/12/15 03:21:21;;;;;;;46.10;25.53;;;9.40;98.30;;;;;;5122063;23;20487;-80
2021/12/15 03:23:30;;;;;;;45.70;20.97;;;9.40;98.30;;;;;;5122956;23;20426;-80
2021/12/15 03:25:33;;;;;;;48.57;21.23;;;9.40;98.30;;;;;;5122683;23;20563;-80
2021/12/15 03:34:48;;;;;;;48.97;21.23;;;9.40;98.30;;;;;;5121999;23;20440;-80
2021/12/15 03:37:08;;;;;;;45.60;20.30;;;9.50;98.30;;;;;;5123662;23;20422;-78
2021/12/15 03:39:13;;;;;;;48.23;20.90;;;9.50;98.30;;;;;;5121828;23;20430;-79
2021/12/15 03:41:15;;;;;;;42.73;19.23;;;9.50;98.30;;;;;;5131247;23;20430;-80
2021/12/15 03:43:18;;;;;;;52.33;24.60;;;9.50;98.30;;;;;;5131204;23;20423;-79
2021/12/15 03:45:26;;;;;;;46.30;20.97;;;9.50;98.30;;;;;;5130819;23;20509;-79
2021/12/15 03:47:34;;;;;;;44.27;19.60;;;9.50;98.30;;;;;;5123117;23;20704;-79
2021/12/15 03:49:37;;;;;;;41.90;20.60;;;9.50;98.30;;;;;;5131974;23;20826;-79
2021/12/15 03:51:40;;;;;;;46.63;22.53;;;9.50;98.30;;;;;;5133894;23;20419;-80
2021/12/15 03:53:44;;;;;;;41.00;20.27;;;9.50;98.30;;;;;;5123833;23;20454;-79
2021/12/15 03:55:49;;;;;;;51.40;21.63;;;9.60;98.30;;;;;;5121906;23;20450;-79
2021/12/15 03:57:52;;;;;;;47.80;20.87;;;9.60;98.30;;;;;;5123512;23;20445;-78
2021/12/15 03:59:57;;;;;;;44.80;21.90;;;9.60;98.30;;;;;;5130974;23;20424;-81
2021/12/15 04:02:00;;;;;;;52.03;22.30;;;9.60;98.30;;;;;;5123918;23;20435;-81
2021/12/15 04:04:03;;;;;;;47.43;23.17;;;9.60;98.30;;;;;;5123667;23;20426;-81
2021/12/15 04:06:12;;;;;;;51.50;21.20;;;9.60;98.30;;;;;;5123717;23;20450;-79
2021/12/15 04:08:15;;;;;;;50.43;21.63;;;9.60;98.30;;;;;;5122685;23;20418;-78
2021/12/15 04:10:20;;;;;;;50.83;20.13;;;9.60;98.30;;;;;;5124057;23;20457;-81
2021/12/15 04:12:25;;;;;;;46.83;22.17;;;9.60;98.30;;;;;;5123426;23;20415;-81
2021/12/15 04:14:34;;;;;;;45.53;20.73;;;9.60;98.30;;;;;;5122145;23;20430;-80
2021/12/15 04:16:57;;;;;;;44.57;22.03;;;9.60;98.30;;;;;;5122661;23;20441;-80
2021/12/15 04:19:01;;;;;;;46.27;22.00;;;9.60;98.30;;;;;;5122592;23;20432;-80
2021/12/15 04:21:05;;;;;;;47.83;20.47;;;9.60;98.30;;;;;;5130875;23;20422;-79
2021/12/15 04:23:12;;;;;;;47.97;21.27;;;9.60;98.30;;;;;;5130025;23;20426;-80
2021/12/15 04:25:19;;;;;;;50.90;21.03;;;9.60;98.30;;;;;;5124039;23;20468;-80
2021/12/15 04:27:22;;;;;;;45.47;20.27;;;9.60;98.30;;;;;;5123568;23;20438;-79
2021/12/15 04:29:29;;;;;;;56.47;22.13;;;9.70;98.30;;;;;;5132358;23;20422;-80
2021/12/15 04:31:35;;;;;;;50.07;21.70;;;9.60;98.30;;;;;;5123245;23;20438;-80
2021/12/15 04:33:42;;;;;;;45.80;20.90;;;9.70;98.30;;;;;;5123823;23;20441;-80
2021/12/15 04:35:45;;;;;;;52.23;19.80;;;9.70;98.30;;;;;;5131194;23;20509;-79
2021/12/15 04:37:51;;;;;;;46.40;20.60;;;9.70;98.30;;;;;;5123617;23;20434;-80
2021/12/15 04:39:54;;;;;;;56.50;21.47;;;9.70;98.30;;;;;;5132092;23;20445;-80
2021/12/15 04:41:59;;;;;;;56.67;22.20;;;9.70;98.30;;;;;;5124949;23;20509;-79
2021/12/15 04:44:09;;;;;;;54.80;22.67;;;9.70;98.30;;;;;;5121361;23;20429;-80
2021/12/15 04:46:16;;;;;;;48.60;20.60;;;9.70;98.30;;;;;;5127455;23;20504;-80
2021/12/15 04:48:19;;;;;;;59.07;23.50;;;9.70;98.30;;;;;;5116737;23;20429;-80
2021/12/15 04:50:25;;;;;;;52.70;23.57;;;9.70;98.30;;;;;;5128779;23;20426;-80
2021/12/15 04:52:32;;;;;;;60.73;22.30;;;9.70;98.30;;;;;;5122841;23;20489;-79
2021/12/15 04:54:35;;;;;;;56.70;21.17;;;9.70;98.30;;;;;;5130513;23;20419;-79
2021/12/15 04:56:43;;;;;;;64.83;23.23;;;9.70;98.30;;;;;;5130924;23;20804;-78
2021/12/15 04:58:46;;;;;;;56.33;24.20;;;9.70;98.30;;;;;;5121913;23;20442;-80
2021/12/15 05:00:54;;;;;;;54.77;22.97;;;9.70;98.30;;;;;;5122631;23;20426;-79
2021/12/15 05:02:59;;;;;;;62.47;24.90;;;9.70;98.30;;;;;;5129591;23;20769;-81
2021/12/15 05:05:02;;;;;;;45.00;20.67;;;9.70;98.30;;;;;;5122642;23;21024;-79
2021/12/15 05:07:06;;;;;;;53.80;22.17;;;9.70;98.30;;;;;;5122926;23;20438;-80
2021/12/15 05:09:10;;;;;;;54.70;22.40;;;9.70;98.30;;;;;;5130421;23;21115;-80
2021/12/15 05:11:13;;;;;;;62.53;24.00;;;9.70;98.30;;;;;;5122772;23;20434;-81
2021/12/15 05:13:17;;;;;;;57.77;21.70;;;9.80;98.30;;;;;;5130607;23;20963;-81
2021/12/15 05:15:20;;;;;;;63.30;23.67;;;9.70;98.30;;;;;;5122465;23;20457;-81
2021/12/15 05:17:23;;;;;;;51.10;23.13;;;9.80;98.30;;;;;;5131856;23;20439;-81
2021/12/15 05:19:28;;;;;;;63.43;21.30;;;9.70;98.30;;;;;;5123266;23;20466;-81
2021/12/15 05:21:31;;;;;;;60.07;24.80;;;9.70;98.30;;;;;;5131034;23;20424;-81
2021/12/15 05:23:34;;;;;;;62.77;23.67;;;9.70;98.30;;;;;;5122560;23;20816;-81
2021/12/15 05:25:37;;;;;;;63.63;25.00;;;9.80;98.30;;;;;;5123628;23;20766;-80
2021/12/15 05:27:41;;;;;;;56.17;23.27;;;9.80;98.30;;;;;;5123204;23;20458;-82
2021/12/15 05:29:45;;;;;;;70.40;25.43;;;9.80;98.30;;;;;;5130760;23;20509;-80
2021/12/15 05:31:48;;;;;;;60.07;22.63;;;9.80;98.30;;;;;;5131628;23;20810;-81
2021/12/15 05:33:51;;;;;;;60.70;23.47;;;9.80;98.30;;;;;;5123845;23;20453;-81
2021/12/15 05:35:56;;;;;;;61.40;23.20;;;9.80;98.30;;;;;;5131635;23;20449;-81
2021/12/15 05:38:00;;;;;;;55.00;21.27;;;9.80;98.30;;;;;;5133106;23;20450;-81
2021/12/15 05:40:06;;;;;;;60.40;22.77;;;9.80;98.30;;;;;;5124682;23;20430;-80
2021/12/15 05:42:09;;;;;;;58.17;21.63;;;9.80;98.30;;;;;;5126403;23;20457;-79
2021/12/15 05:44:12;;;;;;;59.63;24.23;;;9.80;98.30;;;;;;5126272;23;20436;-80
2021/12/15 05:46:15;;;;;;;64.23;24.40;;;9.80;98.30;;;;;;5132079;23;20446;-78
2021/12/15 05:48:18;;;;;;;64.00;23.63;;;9.80;98.30;;;;;;5123653;23;20438;-80
2021/12/15 05:50:22;;;;;;;74.87;24.20;;;9.80;98.30;;;;;;5130623;23;20496;-80
2021/12/15 05:52:30;;;;;;;56.20;21.73;;;9.80;98.30;;;;;;5121213;23;20441;-81
2021/12/15 05:54:33;;;;;;;79.57;26.17;;;9.90;98.30;;;;;;5121098;23;20456;-81
2021/12/15 05:56:37;;;;;;;67.30;24.83;;;9.80;98.30;;;;;;5122100;23;20455;-81
2021/12/15 05:58:40;;;;;;;60.90;20.43;;;9.80;98.30;;;;;;5121379;23;20426;-81
2021/12/15 06:00:44;;;;;;;68.40;24.33;;;9.80;98.30;;;;;;5122194;23;21034;-81
2021/12/15 06:02:48;;;;;;;77.20;24.83;;;9.80;98.30;;;;;;5122080;23;20437;-79
2021/12/15 06:04:51;;;;;;;70.00;24.27;;;9.80;98.30;;;;;;5129951;23;20442;-79
2021/12/15 06:06:54;;;;;;;72.63;24.80;;;9.80;98.30;;;;;;5122480;23;20434;-81
2021/12/15 06:08:59;;;;;;;73.07;26.30;;;9.80;98.30;;;;;;5121412;23;20430;-79
2021/12/15 06:11:02;;;;;;;75.17;24.10;;;9.80;98.30;;;;;;5121938;23;20429;-80
2021/12/15 06:13:07;;;;;;;77.83;27.00;;;9.90;98.30;;;;;;5122691;23;20441;-80
2021/12/15 06:15:11;;;;;;;78.87;24.73;;;9.90;98.30;;;;;;5122341;23;20505;-81
2021/12/15 06:17:14;;;;;;;85.43;28.27;;;9.90;98.30;;;;;;5121884;23;20438;-80
2021/12/15 06:19:17;;;;;;;75.57;26.47;;;9.90;98.30;;;;;;5129224;23;20417;-81
2021/12/15 06:21:22;;;;;;;81.17;27.33;;;9.90;98.30;;;;;;5129057;23;20433;-81
2021/12/15 06:23:26;;;;;;;76.10;25.90;;;9.90;98.30;;;;;;5129191;23;20904;-81
2021/12/15 06:25:31;;;;;;;73.13;26.97;;;9.90;98.30;;;;;;5128206;23;20501;-80
2021/12/15 06:27:35;;;;;;;67.20;24.10;;;10.00;98.30;;;;;;5121186;23;20461;-81
2021/12/15 06:29:38;;;;;;;74.70;27.17;;;10.00;98.30;;;;;;5129799;23;20509;-80
2021/12/15 06:31:42;;;;;;;88.30;29.30;;;9.90;98.30;;;;;;5130991;23;20761;-81
2021/12/15 06:33:47;;;;;;;84.20;28.90;;;10.00;98.30;;;;;;5119993;23;20426;-80
2021/12/15 06:35:53;;;;;;;80.83;28.20;;;10.00;98.30;;;;;;5118899;23;20748;-81
2021/12/15 06:37:56;;;;;;;87.67;29.70;;;10.00;98.30;;;;;;5126563;23;20516;-81
2021/12/15 06:39:59;;;;;;;71.13;26.37;;;10.00;98.30;;;;;;5117911;23;20436;-80
2021/12/15 06:42:04;;;;;;;86.57;27.50;;;10.00;98.30;;;;;;5129140;23;20431;-80
2021/12/15 06:44:09;;;;;;;73.67;26.63;;;10.00;98.30;;;;;;5122088;23;20731;-81
2021/12/15 06:46:35;;;;;;;79.77;27.33;;;10.10;98.30;;;;;;5121698;23;20524;-81
2021/12/15 06:58:11;;;;;;;83.00;28.53;;;10.10;98.30;;;;;;5120206;23;20425;-81
2021/12/15 07:00:15;;;;;;;68.67;25.93;;;10.10;98.30;;;;;;5121126;23;20435;-81
2021/12/15 07:02:18;;;;;;;71.80;28.57;;;10.10;98.30;;;;;;5122102;23;20490;-80
2021/12/15 07:04:23;;;;;;;68.40;24.30;;;10.10;98.30;;;;;;5120236;23;20428;-79
2021/12/15 07:06:30;;;;;;;75.83;26.73;;;10.10;98.30;;;;;;5121009;23;20431;-80
2021/12/15 07:08:33;;;;;;;73.20;26.23;;;10.10;98.30;;;;;;5121679;23;20439;-80
2021/12/15 07:10:39;;;;;;;69.37;25.90;;;10.10;98.30;;;;;;5121775;23;20431;-81
2021/12/15 07:12:42;;;;;;;84.90;27.90;;;10.10;98.30;;;;;;5129920;23;20404;-81
2021/12/15 07:14:46;;;;;;;75.57;26.60;;;10.20;98.30;;;;;;5119365;23;20514;-82
2021/12/15 07:16:52;;;;;;;83.90;30.80;;;10.10;98.30;;;;;;5118384;23;20445;-81
2021/12/15 07:19:07;;;;;;;72.63;26.77;;;10.20;98.30;;;;;;5119692;23;20429;-82
2021/12/15 07:21:18;;;;;;;70.90;25.37;;;10.20;98.30;;;;;;5128462;23;20422;-80
2021/12/15 07:23:23;;;;;;;68.80;27.90;;;10.20;98.30;;;;;;5126579;23;20530;-82
2021/12/15 07:25:27;;;;;;;69.77;25.80;;;10.20;98.30;;;;;;5127596;23;20446;-82
2021/12/15 07:27:30;;;;;;;82.17;28.17;;;10.20;98.30;;;;;;5119392;23;20432;-81
2021/12/15 07:29:35;;;;;;;78.77;28.23;;;10.20;98.30;;;;;;5118648;23;20438;-81
2021/12/15 07:31:39;;;;;;;67.40;28.80;;;10.20;98.30;;;;;;5118871;23;20431;-81
2021/12/15 07:33:42;;;;;;;55.10;26.67;;;10.20;98.30;;;;;;5127455;23;20428;-82
2021/12/15 07:35:45;;;;;;;66.70;26.23;;;10.20;98.30;;;;;;5127576;23;20794;-82
2021/12/15 07:37:48;;;;;;;75.83;25.80;;;10.20;98.30;;;;;;5127978;23;20434;-82
2021/12/15 07:39:58;;;;;;;70.60;27.83;;;10.20;98.30;;;;;;5128219;23;20420;-80
2021/12/15 07:42:06;;;;;;;56.83;24.20;;;10.30;98.30;;;;;;5120087;23;20430;-81
2021/12/15 07:44:25;;;;;;;66.13;27.47;;;10.30;98.30;;;;;;5120763;23;20449;-82
2021/12/15 07:46:28;;;;;;;65.23;24.33;;;10.30;98.30;;;;;;5120331;23;20711;-80
2021/12/15 07:48:35;;;;;;;75.57;27.57;;;10.30;98.30;;;;;;5119670;23;20822;-81
2021/12/15 07:50:42;;;;;;;59.03;23.83;;;10.20;98.30;;;;;;5127696;23;20434;-81
2021/12/15 07:52:45;;;;;;;58.10;25.30;;;10.30;98.30;;;;;;5120068;23;20790;-82
2021/12/15 07:54:48;;;;;;;66.20;27.30;;;10.30;98.30;;;;;;5120445;23;20466;-81
2021/12/15 07:56:51;;;;;;;56.27;25.37;;;10.30;98.30;;;;;;5128646;23;20780;-81
2021/12/15 07:58:54;;;;;;;59.33;24.20;;;10.30;98.30;;;;;;5119625;23;20439;-80
2021/12/15 08:00:59;;;;;;;54.23;23.17;;;10.30;98.30;;;;;;5121761;23;20480;-80
2021/12/15 08:03:02;;;;;;;59.37;24.97;;;10.30;98.30;;;;;;5130836;23;20423;-80
2021/12/15 08:05:08;;;;;;;63.00;26.90;;;10.30;98.30;;;;;;5121126;23;20536;-80
2021/12/15 08:07:11;;;;;;;62.77;27.40;;;10.30;98.30;;;;;;5122747;23;20485;-81
2021/12/15 08:09:14;;;;;;;65.30;28.23;;;10.30;98.30;;;;;;5122499;23;20438;-80
2021/12/15 08:11:17;;;;;;;61.57;25.13;;;10.30;98.30;;;;;;5130603;23;20767;-82
2021/12/15 08:13:20;;;;;;;57.47;24.80;;;10.30;98.30;;;;;;5131264;23;20462;-80
2021/12/15 08:15:24;;;;;;;56.00;25.10;;;10.30;98.30;;;;;;5131043;23;20456;-82
2021/12/15 08:17:27;;;;;;;53.83;27.33;;;10.30;98.30;;;;;;5131688;23;20441;-82
2021/12/15 08:19:30;;;;;;;52.43;24.00;;;10.30;98.30;;;;;;5120025;23;20489;-82
2021/12/15 08:21:35;;;;;;;55.53;24.00;;;10.30;98.30;;;;;;5127020;23;20490;-80
2021/12/15 08:23:40;;;;;;;53.53;24.60;;;10.30;98.30;;;;;;5127134;23;20430;-81
2021/12/15 08:25:47;;;;;;;55.20;24.23;;;10.30;98.30;;;;;;5120478;23;20478;-81
2021/12/15 08:27:52;;;;;;;44.13;22.63;;;10.30;98.30;;;;;;5127997;23;20426;-80
2021/12/15 08:29:55;;;;;;;53.53;23.43;;;10.30;98.30;;;;;;5122726;23;20759;-82
2021/12/15 08:31:58;;;;;;;54.57;24.50;;;10.30;98.30;;;;;;5122981;23;20432;-80
2021/12/15 08:34:01;;;;;;;55.43;25.87;;;10.40;98.30;;;;;;5131198;23;20428;-82
2021/12/15 08:36:08;;;;;;;51.37;21.37;;;10.30;98.30;;;;;;5128408;23;20458;-80
2021/12/15 08:38:14;;;;;;;53.63;23.10;;;10.40;98.30;;;;;;5126534;23;20416;-82
2021/12/15 08:40:18;;;;;;;49.53;24.03;;;10.40;98.30;;;;;;5120770;23;20431;-80
2021/12/15 08:42:28;;;;;;;50.73;21.13;;;10.40;98.30;;;;;;5120509;23;20718;-81
2021/12/15 08:44:31;;;;;;;55.40;25.37;;;10.40;98.30;;;;;;5120912;23;20746;-81
2021/12/15 08:46:39;;;;;;;50.43;23.43;;;10.40;98.30;;;;;;5130675;23;20423;-82
2021/12/15 08:48:44;;;;;;;44.43;22.40;;;10.30;98.30;;;;;;5122283;23;20417;-81
2021/12/15 08:50:47;;;;;;;53.47;24.63;;;10.40;98.30;;;;;;5120966;23;20435;-81
2021/12/15 08:52:50;;;;;;;49.13;22.00;;;10.40;98.30;;;;;;5130601;23;20430;-80
2021/12/15 08:54:54;;;;;;;45.47;21.57;;;10.40;98.30;;;;;;5120763;23;20481;-81
2021/12/15 08:56:57;;;;;;;48.23;21.77;;;10.40;98.30;;;;;;5119186;23;20443;-81
2021/12/15 08:59:00;;;;;;;44.63;21.83;;;10.40;98.30;;;;;;5119344;23;20462;-80
2021/12/15 09:01:06;;;;;;;50.00;22.87;;;10.40;98.30;;;;;;5120231;23;20802;-82
2021/12/15 09:03:10;;;;;;;48.47;23.27;;;10.40;98.30;;;;;;5121491;23;20450;-81
2021/12/15 09:05:13;;;;;;;51.03;22.83;;;10.50;98.30;;;;;;5122094;23;20828;-80
2021/12/15 09:07:16;;;;;;;42.80;20.80;;;10.40;98.30;;;;;;5130871;23;20515;-80
2021/12/15 09:09:21;;;;;;;48.27;24.37;;;10.50;98.30;;;;;;5122189;23;20431;-82
2021/12/15 09:11:27;;;;;;;49.30;21.10;;;10.50;98.30;;;;;;5121802;23;20442;-82
2021/12/15 09:13:32;;;;;;;51.10;23.73;;;10.50;98.30;;;;;;5129360;23;20424;-80
2021/12/15 09:15:36;;;;;;;43.93;21.07;;;10.50;98.30;;;;;;5128395;23;20947;-81
2021/12/15 09:17:41;;;;;;;37.40;19.27;;;10.50;98.30;;;;;;5127054;23;20463;-81
2021/12/15 09:19:44;;;;;;;52.30;23.93;;;10.50;98.30;;;;;;5125255;23;20430;-82
2021/12/15 09:21:50;;;;;;;37.87;18.77;;;10.50;98.30;;;;;;5124765;23;20427;-81
2021/12/15 09:23:53;;;;;;;46.70;24.50;;;10.50;98.30;;;;;;5116754;23;20439;-82
2021/12/15 09:25:57;;;;;;;39.70;20.53;;;10.50;98.30;;;;;;5116658;23;20449;-81
2021/12/15 09:28:01;;;;;;;46.37;20.70;;;10.50;98.30;;;;;;5123887;23;20461;-81
2021/12/15 09:30:05;;;;;;;44.47;22.10;;;10.50;98.30;;;;;;5124403;23;20777;-81
2021/12/15 09:32:08;;;;;;;43.00;21.63;;;10.50;98.30;;;;;;5117352;23;20757;-80
2021/12/15 09:34:17;;;;;;;48.33;20.33;;;10.50;98.30;;;;;;5117781;23;20920;-81
2021/12/15 09:36:24;;;;;;;33.93;18.50;;;10.50;98.30;;;;;;5125748;23;20944;-81
2021/12/15 09:38:28;;;;;;;39.20;19.30;;;10.50;98.30;;;;;;5116289;23;20422;-81
2021/12/15 09:40:31;;;;;;;45.30;22.10;;;10.50;98.30;;;;;;5115446;23;20443;-81
2021/12/15 09:42:38;;;;;;;43.47;20.80;;;10.50;98.30;;;;;;5116519;23;20428;-81
2021/12/15 09:44:43;;;;;;;45.63;21.90;;;10.50;98.30;;;;;;5116709;23;20415;-81
2021/12/15 09:47:19;;;;;;;52.20;23.73;;;10.50;98.30;;;;;;5116535;23;20432;-81
2021/12/15 09:57:01;;;;;;;47.63;22.53;;;10.60;98.30;;;;;;5124769;23;20448;-81
2021/12/15 10:04:13;;;;;;;41.43;21.43;;;10.60;98.30;;;;;;5124345;23;20435;-82
2021/12/15 10:06:28;;;;;;;41.80;20.90;;;10.60;98.30;;;;;;5124482;23;20446;-81
2021/12/15 10:11:45;;;;;;;39.50;20.43;;;10.60;98.30;;;;;;5048440;23;20442;-82
2021/12/15 10:18:53;;;;;;;43.67;20.33;;;10.60;98.30;;;;;;5115759;23;20486;-81
2021/12/15 10:20:57;;;;;;;45.53;23.00;;;10.60;98.30;;;;;;5116192;23;20770;-81
2021/12/15 10:23:10;;;;;;;47.73;23.30;;;10.70;98.30;;;;;;5124346;23;20461;-81
2021/12/15 10:25:16;;;;;;;47.43;22.53;;;10.60;98.30;;;;;;5116351;23;20490;-80
2021/12/15 10:27:34;;;;;;;50.50;24.07;;;10.60;98.30;;;;;;5115980;23;20434;-81
2021/12/15 10:29:57;;;;;;;55.97;24.47;;;10.60;98.30;;;;;;5123815;23;20487;-81
2021/12/15 10:32:05;;;;;;;45.30;23.10;;;10.60;98.30;;;;;;5124696;23;20434;-81
2021/12/15 10:34:11;;;;;;;44.20;23.60;;;10.60;98.30;;;;;;5124660;23;20469;-81
2021/12/15 10:36:35;;;;;;;46.13;23.53;;;10.60;98.30;;;;;;5116130;23;20988;-81
2021/12/15 10:38:41;;;;;;;41.93;21.47;;;10.60;98.30;;;;;;5115880;23;20431;-81
2021/12/15 10:40:47;;;;;;;53.57;25.40;;;10.60;98.30;;;;;;5124874;23;20929;-81
2021/12/15 10:43:03;;;;;;;41.37;20.37;;;10.70;98.30;;;;;;5117860;23;20428;-81
2021/12/15 10:45:10;;;;;;;48.07;22.13;;;10.60;98.30;;;;;;5123988;23;20496;-81
2021/12/15 10:47:23;;;;;;;43.57;22.30;;;10.60;98.30;;;;;;5115134;23;20429;-81
2021/12/15 10:49:30;;;;;;;45.40;22.80;;;10.60;98.30;;;;;;5116308;23;20419;-81
2021/12/15 10:51:41;;;;;;;48.37;22.10;;;10.60;98.30;;;;;;5124389;23;20409;-81
2021/12/15 10:53:44;;;;;;;39.83;20.40;;;10.70;98.30;;;;;;5115502;23;20468;-81
2021/12/15 10:55:51;;;;;;;45.53;23.80;;;10.60;98.30;;;;;;5115658;23;20478;-82
2021/12/15 10:57:54;;;;;;;47.43;22.43;;;10.60;98.30;;;;;;5115600;23;20510;-82
2021/12/15 10:59:57;;;;;;;42.50;23.10;;;10.60;98.30;;;;;;5115613;23;20440;-81
2021/12/15 11:02:23;;;;;;;42.30;22.30;;;10.60;98.30;;;;;;5124354;23;20427;-82
2021/12/15 11:04:37;;;;;;;46.03;22.83;;;10.70;98.30;;;;;;5113440;23;20440;-82
2021/12/15 11:06:40;;;;;;;44.57;23.30;;;10.70;98.30;;;;;;5113709;23;20692;-81
2021/12/15 11:08:43;;;;;;;48.30;25.10;;;10.70;98.30;;;;;;5121720;23;20429;-81
2021/12/15 11:10:46;;;;;;;50.97;24.20;;;10.70;98.30;;;;;;5122098;23;20424;-82
2021/12/15 11:12:53;;;;;;;40.83;21.00;;;10.70;98.30;;;;;;5114203;23;20438;-81
2021/12/15 11:14:59;;;;;;;46.47;24.10;;;10.70;98.30;;;;;;5122729;23;20763;-83
2021/12/15 11:17:12;;;;;;;42.63;21.37;;;10.70;98.30;;;;;;5114288;23;20451;-81
2021/12/15 11:19:42;;;;;;;44.67;22.77;;;10.70;98.30;;;;;;5114553;23;20430;-81
2021/12/15 11:21:45;;;;;;;49.80;23.80;;;10.70;98.30;;;;;;5123702;23;20474;-82
2021/12/15 11:23:55;;;;;;;55.00;24.83;;;10.70;98.30;;;;;;5113913;23;20432;-82
2021/12/15 11:26:00;;;;;;;45.70;21.90;;;10.70;98.30;;;;;;5115636;23;20954;-81
2021/12/15 11:28:29;;;;;;;59.27;23.73;;;10.70;98.30;;;;;;5125589;23;20420;-82
2021/12/15 11:30:36;;;;;;;49.73;23.77;;;10.70;98.30;;;;;;5117795;23;20430;-81
2021/12/15 11:32:44;;;;;;;45.90;23.80;;;10.70;98.30;;;;;;5118812;23;20420;-81
2021/12/15 11:35:01;;;;;;;56.77;24.73;;;10.70;98.30;;;;;;5124300;23;20451;-83
2021/12/15 11:37:04;;;;;;;49.17;25.37;;;10.70;98.30;;;;;;5125681;23;20467;-82
2021/12/15 11:40:03;;;;;;;49.97;22.50;;;10.70;98.30;;;;;;5117403;23;20507;-80
2021/12/15 11:42:08;;;;;;;49.53;22.63;;;10.80;98.30;;;;;;5029348;23;20436;-82